sensor_id;sensor_type;location;lat;lon;timestamp;pressure;altitude;pressure_sealevel;temperature;humidity
41947;BME280;27638;42.184;24.848;2024-03-08T00:01:47;100043.22;;;8.45;100.00
41947;BME280;27638;42.184;24.848;2024-03-08T00:04:13;100044.31;;;8.61;100.00
41947;BME280;27638;42.184;24.848;2024-03-08T00:06:40;100042.25;;;8.46;100.00
41947;BME280;27638;42.184;24.848;2024-03-08T00:09:05;100036.66;;;8.29;100.00
41947;BME280;27638;42.184;24.848;2024-03-08T00:11:33;100033.03;;;8.30;100.00
41947;BME280;27638;42.184;24.848;2024-03-08T00:13:59;100030.19;;;8.34;100.00
41947;BME280;27638;42.184;24.848;2024-03-08T00:16:25;100031.03;;;8.34;100.00
41947;BME280;27638;42.184;24.848;2024-03-08T00:18:50;100033.38;;;8.37;100.00
41947;BME280;27638;42.184;24.848;2024-03-08T00:21:15;100025.84;;;8.52;100.00
41947;BME280;27638;42.184;24.848;2024-03-08T00:23:41;100032.34;;;8.67;100.00
41947;BME280;27638;42.184;24.848;2024-03-08T00:26:07;100017.75;;;8.73;100.00
41947;BME280;27638;42.184;24.848;2024-03-08T00:28:32;100024.66;;;8.83;100.00
41947;BME280;27638;42.184;24.848;2024-03-08T00:30:59;100029.66;;;8.86;100.00
41947;BME280;27638;42.184;24.848;2024-03-08T00:33:25;100026.56;;;8.91;100.00
41947;BME280;27638;42.184;24.848;2024-03-08T00:35:51;100031.97;;;8.99;100.00
41947;BME280;27638;42.184;24.848;2024-03-08T00:38:16;100027.91;;;9.05;100.00
41947;BME280;27638;42.184;24.848;2024-03-08T00:40:44;100037.47;;;9.15;100.00
41947;BME280;27638;42.184;24.848;2024-03-08T00:43:09;100029.94;;;9.20;100.00
41947;BME280;27638;42.184;24.848;2024-03-08T00:45:35;100033.66;;;9.27;100.00
41947;BME280;27638;42.184;24.848;2024-03-08T00:48:03;100035.16;;;9.30;100.00
41947;BME280;27638;42.184;24.848;2024-03-08T00:50:28;100038.78;;;9.29;100.00
41947;BME280;27638;42.184;24.848;2024-03-08T00:52:54;100032.28;;;9.23;100.00
41947;BME280;27638;42.184;24.848;2024-03-08T00:55:19;100037.84;;;9.20;100.00
41947;BME280;27638;42.184;24.848;2024-03-08T00:57:45;100030.19;;;9.27;100.00
41947;BME280;27638;42.184;24.848;2024-03-08T01:00:11;100038.78;;;9.29;100.00
41947;BME280;27638;42.184;24.848;2024-03-08T01:02:38;100036.69;;;9.33;100.00
41947;BME280;27638;42.184;24.848;2024-03-08T01:05:05;100031.97;;;9.26;100.00
41947;BME280;27638;42.184;24.848;2024-03-08T01:07:34;100030.91;;;9.19;100.00
41947;BME280;27638;42.184;24.848;2024-03-08T01:10:02;100034.09;;;9.23;100.00
41947;BME280;27638;42.184;24.848;2024-03-08T01:12:28;100025.53;;;9.11;100.00
41947;BME280;27638;42.184;24.848;2024-03-08T01:14:54;100013.47;;;8.99;100.00
41947;BME280;27638;42.184;24.848;2024-03-08T01:17:20;100018.78;;;8.89;100.00
41947;BME280;27638;42.184;24.848;2024-03-08T01:19:45;100018.94;;;8.88;100.00
41947;BME280;27638;42.184;24.848;2024-03-08T01:22:11;100020.47;;;8.90;100.00
41947;BME280;27638;42.184;24.848;2024-03-08T01:24:36;100019.47;;;8.91;100.00
41947;BME280;27638;42.184;24.848;2024-03-08T01:27:02;100019.81;;;8.79;100.00
41947;BME280;27638;42.184;24.848;2024-03-08T01:29:28;100021.47;;;8.80;100.00
41947;BME280;27638;42.184;24.848;2024-03-08T01:31:55;100013.84;;;8.77;100.00
41947;BME280;27638;42.184;24.848;2024-03-08T01:34:21;100020.53;;;8.71;100.00
41947;BME280;27638;42.184;24.848;2024-03-08T01:36:48;100021.91;;;8.75;100.00
41947;BME280;27638;42.184;24.848;2024-03-08T01:39:14;100028.00;;;8.76;100.00
41947;BME280;27638;42.184;24.848;2024-03-08T01:41:40;100037.03;;;8.83;100.00
41947;BME280;27638;42.184;24.848;2024-03-08T01:44:06;100035.78;;;8.77;100.00
41947;BME280;27638;42.184;24.848;2024-03-08T01:46:33;100027.03;;;8.77;100.00
41947;BME280;27638;42.184;24.848;2024-03-08T01:48:59;100026.22;;;8.67;100.00
41947;BME280;27638;42.184;24.848;2024-03-08T01:51:29;100031.66;;;8.65;100.00
41947;BME280;27638;42.184;24.848;2024-03-08T01:53:56;100020.44;;;8.44;100.00
41947;BME280;27638;42.184;24.848;2024-03-08T01:56:25;100032.78;;;8.24;100.00
41947;BME280;27638;42.184;24.848;2024-03-08T01:58:51;100030.28;;;8.13;100.00
41947;BME280;27638;42.184;24.848;2024-03-08T02:01:18;100026.38;;;8.17;100.00
41947;BME280;27638;42.184;24.848;2024-03-08T02:03:44;100019.03;;;7.72;100.00
41947;BME280;27638;42.184;24.848;2024-03-08T02:06:12;100019.56;;;7.66;100.00
41947;BME280;27638;42.184;24.848;2024-03-08T02:08:39;100034.97;;;7.71;100.00
41947;BME280;27638;42.184;24.848;2024-03-08T02:11:07;100031.84;;;7.36;100.00
41947;BME280;27638;42.184;24.848;2024-03-08T02:13:32;100029.25;;;7.16;100.00
41947;BME280;27638;42.184;24.848;2024-03-08T02:16:00;100035.50;;;7.15;100.00
41947;BME280;27638;42.184;24.848;2024-03-08T02:18:26;100032.44;;;7.10;100.00
41947;BME280;27638;42.184;24.848;2024-03-08T02:20:53;100029.22;;;7.36;100.00
41947;BME280;27638;42.184;24.848;2024-03-08T02:23:20;100033.69;;;7.46;100.00
41947;BME280;27638;42.184;24.848;2024-03-08T02:25:46;100042.13;;;7.09;100.00
41947;BME280;27638;42.184;24.848;2024-03-08T02:28:12;100035.81;;;6.91;100.00
41947;BME280;27638;42.184;24.848;2024-03-08T02:30:39;100037.97;;;7.07;100.00
41947;BME280;27638;42.184;24.848;2024-03-08T02:33:05;100036.56;;;7.02;100.00
41947;BME280;27638;42.184;24.848;2024-03-08T02:35:31;100041.19;;;7.20;100.00
41947;BME280;27638;42.184;24.848;2024-03-08T02:37:57;100041.75;;;7.23;100.00
41947;BME280;27638;42.184;24.848;2024-03-08T02:40:23;100031.72;;;7.38;100.00
41947;BME280;27638;42.184;24.848;2024-03-08T02:42:49;100027.59;;;7.55;100.00
41947;BME280;27638;42.184;24.848;2024-03-08T02:45:14;100035.50;;;7.15;100.00
41947;BME280;27638;42.184;24.848;2024-03-08T02:47:40;100040.31;;;7.40;100.00
41947;BME280;27638;42.184;24.848;2024-03-08T02:50:06;100039.25;;;7.62;100.00
41947;BME280;27638;42.184;24.848;2024-03-08T02:52:36;100037.34;;;7.83;100.00
41947;BME280;27638;42.184;24.848;2024-03-08T02:55:04;100033.75;;;8.04;100.00
41947;BME280;27638;42.184;24.848;2024-03-08T02:57:31;100041.38;;;8.26;100.00
41947;BME280;27638;42.184;24.848;2024-03-08T02:59:57;100038.78;;;8.45;100.00
41947;BME280;27638;42.184;24.848;2024-03-08T03:02:25;100038.22;;;8.42;100.00
41947;BME280;27638;42.184;24.848;2024-03-08T03:04:52;100035.44;;;8.43;100.00
41947;BME280;27638;42.184;24.848;2024-03-08T03:07:18;100035.00;;;8.28;100.00
41947;BME280;27638;42.184;24.848;2024-03-08T03:09:43;100039.06;;;8.42;100.00
41947;BME280;27638;42.184;24.848;2024-03-08T03:12:08;100039.03;;;8.23;100.00
41947;BME280;27638;42.184;24.848;2024-03-08T03:14:37;100038.50;;;8.39;100.00
41947;BME280;27638;42.184;24.848;2024-03-08T03:17:05;100041.66;;;8.04;100.00
41947;BME280;27638;42.184;24.848;2024-03-08T03:19:31;100040.13;;;8.01;100.00
41947;BME280;27638;42.184;24.848;2024-03-08T03:21:56;100043.84;;;7.60;100.00
41947;BME280;27638;42.184;24.848;2024-03-08T03:24:22;100048.28;;;7.59;100.00
41947;BME280;27638;42.184;24.848;2024-03-08T03:26:48;100062.75;;;7.34;100.00
41947;BME280;27638;42.184;24.848;2024-03-08T03:29:15;100054.22;;;7.21;100.00
41947;BME280;27638;42.184;24.848;2024-03-08T03:31:42;100056.44;;;7.16;100.00
41947;BME280;27638;42.184;24.848;2024-03-08T03:34:11;100057.69;;;7.22;100.00
41947;BME280;27638;42.184;24.848;2024-03-08T03:36:37;100061.00;;;7.14;100.00
41947;BME280;27638;42.184;24.848;2024-03-08T03:39:07;100054.97;;;7.02;100.00
41947;BME280;27638;42.184;24.848;2024-03-08T03:41:38;100060.38;;;7.01;100.00
41947;BME280;27638;42.184;24.848;2024-03-08T03:44:05;100061.78;;;7.05;100.00
41947;BME280;27638;42.184;24.848;2024-03-08T03:46:32;100062.56;;;6.96;100.00
41947;BME280;27638;42.184;24.848;2024-03-08T03:48:58;100061.59;;;6.97;100.00
41947;BME280;27638;42.184;24.848;2024-03-08T03:51:24;100062.25;;;6.89;100.00
41947;BME280;27638;42.184;24.848;2024-03-08T03:53:50;100059.47;;;7.12;100.00
41947;BME280;27638;42.184;24.848;2024-03-08T03:56:15;100060.25;;;7.02;100.00
41947;BME280;27638;42.184;24.848;2024-03-08T03:58:40;100067.06;;;7.05;100.00
41947;BME280;27638;42.184;24.848;2024-03-08T04:01:06;100070.81;;;7.12;100.00
41947;BME280;27638;42.184;24.848;2024-03-08T04:03:31;100075.22;;;7.02;100.00
41947;BME280;27638;42.184;24.848;2024-03-08T04:05:57;100072.97;;;6.97;100.00
41947;BME280;27638;42.184;24.848;2024-03-08T04:08:22;100071.75;;;7.01;100.00
41947;BME280;27638;42.184;24.848;2024-03-08T04:10:51;100073.72;;;7.09;100.00
41947;BME280;27638;42.184;24.848;2024-03-08T04:13:16;100069.19;;;6.90;100.00
41947;BME280;27638;42.184;24.848;2024-03-08T04:15:42;100070.28;;;6.88;100.00
41947;BME280;27638;42.184;24.848;2024-03-08T04:18:10;100084.19;;;6.69;100.00
41947;BME280;27638;42.184;24.848;2024-03-08T04:20:35;100076.78;;;6.63;100.00
41947;BME280;27638;42.184;24.848;2024-03-08T04:23:02;100071.84;;;6.69;100.00
41947;BME280;27638;42.184;24.848;2024-03-08T04:25:27;100073.38;;;6.72;100.00
41947;BME280;27638;42.184;24.848;2024-03-08T04:27:53;100079.44;;;6.63;100.00
41947;BME280;27638;42.184;24.848;2024-03-08T04:30:18;100077.69;;;6.52;100.00
41947;BME280;27638;42.184;24.848;2024-03-08T04:32:44;100071.03;;;6.48;100.00
41947;BME280;27638;42.184;24.848;2024-03-08T04:35:09;100080.91;;;6.35;100.00
41947;BME280;27638;42.184;24.848;2024-03-08T04:37:35;100082.50;;;6.47;100.00
41947;BME280;27638;42.184;24.848;2024-03-08T04:40:00;100083.66;;;6.33;100.00
41947;BME280;27638;42.184;24.848;2024-03-08T04:42:27;100088.06;;;6.33;100.00
41947;BME280;27638;42.184;24.848;2024-03-08T04:44:54;100084.16;;;6.16;100.00
41947;BME280;27638;42.184;24.848;2024-03-08T04:47:19;100090.13;;;6.29;100.00
41947;BME280;27638;42.184;24.848;2024-03-08T04:49:45;100099.69;;;6.19;100.00
41947;BME280;27638;42.184;24.848;2024-03-08T04:52:12;100092.91;;;6.17;100.00
41947;BME280;27638;42.184;24.848;2024-03-08T04:54:37;100087.25;;;6.21;100.00
41947;BME280;27638;42.184;24.848;2024-03-08T04:57:03;100090.84;;;6.31;100.00
41947;BME280;27638;42.184;24.848;2024-03-08T04:59:30;100096.34;;;6.17;100.00
41947;BME280;27638;42.184;24.848;2024-03-08T05:01:55;100098.91;;;6.07;100.00
41947;BME280;27638;42.184;24.848;2024-03-08T05:04:21;100103.16;;;6.31;100.00
41947;BME280;27638;42.184;24.848;2024-03-08T05:06:48;100098.94;;;6.39;100.00
41947;BME280;27638;42.184;24.848;2024-03-08T05:09:13;100104.38;;;6.48;100.00
41947;BME280;27638;42.184;24.848;2024-03-08T05:11:40;100110.78;;;6.23;100.00
41947;BME280;27638;42.184;24.848;2024-03-08T05:14:06;100101.34;;;6.31;100.00
41947;BME280;27638;42.184;24.848;2024-03-08T05:16:31;100106.94;;;6.38;100.00
41947;BME280;27638;42.184;24.848;2024-03-08T05:18:57;100106.47;;;6.33;100.00
41947;BME280;27638;42.184;24.848;2024-03-08T05:21:22;100114.75;;;6.28;100.00
41947;BME280;27638;42.184;24.848;2024-03-08T05:23:48;100115.47;;;6.30;100.00
41947;BME280;27638;42.184;24.848;2024-03-08T05:26:15;100122.78;;;6.16;100.00
41947;BME280;27638;42.184;24.848;2024-03-08T05:28:41;100120.97;;;6.16;100.00
41947;BME280;27638;42.184;24.848;2024-03-08T05:31:07;100128.88;;;6.16;100.00
41947;BME280;27638;42.184;24.848;2024-03-08T05:33:32;100133.28;;;6.27;100.00
41947;BME280;27638;42.184;24.848;2024-03-08T05:36:00;100127.19;;;6.15;100.00
41947;BME280;27638;42.184;24.848;2024-03-08T05:38:28;100118.09;;;6.19;100.00
41947;BME280;27638;42.184;24.848;2024-03-08T05:40:54;100130.41;;;6.30;100.00
41947;BME280;27638;42.184;24.848;2024-03-08T05:43:20;100139.25;;;6.29;100.00
41947;BME280;27638;42.184;24.848;2024-03-08T05:45:46;100136.38;;;6.21;100.00
41947;BME280;27638;42.184;24.848;2024-03-08T05:48:13;100148.56;;;6.33;100.00
41947;BME280;27638;42.184;24.848;2024-03-08T05:50:38;100144.53;;;6.18;100.00
41947;BME280;27638;42.184;24.848;2024-03-08T05:53:04;100149.91;;;6.27;100.00
41947;BME280;27638;42.184;24.848;2024-03-08T05:55:32;100153.81;;;6.33;100.00
41947;BME280;27638;42.184;24.848;2024-03-08T05:58:01;100151.31;;;6.31;100.00
41947;BME280;27638;42.184;24.848;2024-03-08T06:00:27;100162.94;;;6.18;100.00
41947;BME280;27638;42.184;24.848;2024-03-08T06:02:52;100155.53;;;6.12;100.00
41947;BME280;27638;42.184;24.848;2024-03-08T06:05:18;100155.41;;;6.13;100.00
41947;BME280;27638;42.184;24.848;2024-03-08T06:07:43;100158.16;;;6.12;100.00
41947;BME280;27638;42.184;24.848;2024-03-08T06:10:10;100160.69;;;6.02;100.00
41947;BME280;27638;42.184;24.848;2024-03-08T06:12:37;100164.38;;;6.11;100.00
41947;BME280;27638;42.184;24.848;2024-03-08T06:15:07;100171.44;;;5.99;100.00
41947;BME280;27638;42.184;24.848;2024-03-08T06:17:34;100170.34;;;6.13;100.00
41947;BME280;27638;42.184;24.848;2024-03-08T06:20:00;100172.34;;;6.20;100.00
41947;BME280;27638;42.184;24.848;2024-03-08T06:22:26;100176.94;;;6.07;100.00
41947;BME280;27638;42.184;24.848;2024-03-08T06:24:51;100174.44;;;6.05;100.00
41947;BME280;27638;42.184;24.848;2024-03-08T06:27:17;100173.97;;;6.00;100.00
41947;BME280;27638;42.184;24.848;2024-03-08T06:29:43;100168.31;;;6.16;100.00
41947;BME280;27638;42.184;24.848;2024-03-08T06:32:08;100174.03;;;6.32;100.00
41947;BME280;27638;42.184;24.848;2024-03-08T06:34:34;100180.25;;;6.31;100.00
41947;BME280;27638;42.184;24.848;2024-03-08T06:37:02;100180.25;;;6.20;100.00
41947;BME280;27638;42.184;24.848;2024-03-08T06:39:27;100176.19;;;6.27;100.00
41947;BME280;27638;42.184;24.848;2024-03-08T06:41:57;100179.41;;;6.31;100.00
41947;BME280;27638;42.184;24.848;2024-03-08T06:44:23;100181.47;;;6.27;100.00
41947;BME280;27638;42.184;24.848;2024-03-08T06:46:48;100103.69;;;6.02;100.00
41947;BME280;27638;42.184;24.848;2024-03-08T06:49:14;100193.25;;;6.44;100.00
41947;BME280;27638;42.184;24.848;2024-03-08T06:51:41;100190.78;;;6.31;100.00
41947;BME280;27638;42.184;24.848;2024-03-08T06:54:06;100192.13;;;6.58;100.00
41947;BME280;27638;42.184;24.848;2024-03-08T06:56:34;100193.22;;;6.76;100.00
41947;BME280;27638;42.184;24.848;2024-03-08T06:59:00;100199.91;;;6.80;100.00
41947;BME280;27638;42.184;24.848;2024-03-08T07:01:25;100201.19;;;6.86;100.00
41947;BME280;27638;42.184;24.848;2024-03-08T07:03:50;100204.78;;;6.85;100.00
41947;BME280;27638;42.184;24.848;2024-03-08T07:06:18;100207.75;;;6.91;100.00
41947;BME280;27638;42.184;24.848;2024-03-08T07:08:44;100205.69;;;6.74;100.00
41947;BME280;27638;42.184;24.848;2024-03-08T07:11:11;100201.09;;;7.08;100.00
41947;BME280;27638;42.184;24.848;2024-03-08T07:13:37;100206.41;;;7.18;100.00
41947;BME280;27638;42.184;24.848;2024-03-08T07:16:04;100207.25;;;7.18;100.00
41947;BME280;27638;42.184;24.848;2024-03-08T07:18:30;100200.31;;;7.38;100.00
41947;BME280;27638;42.184;24.848;2024-03-08T07:20:56;100206.47;;;7.48;100.00
41947;BME280;27638;42.184;24.848;2024-03-08T07:23:22;100204.28;;;7.12;100.00
41947;BME280;27638;42.184;24.848;2024-03-08T07:26:06;100216.19;;;7.06;100.00
41947;BME280;27638;42.184;24.848;2024-03-08T07:28:31;100204.09;;;7.03;100.00
41947;BME280;27638;42.184;24.848;2024-03-08T07:30:58;100206.47;;;7.27;100.00
41947;BME280;27638;42.184;24.848;2024-03-08T07:33:58;100207.66;;;7.34;100.00
41947;BME280;27638;42.184;24.848;2024-03-08T07:36:24;100212.34;;;7.31;100.00
41947;BME280;27638;42.184;24.848;2024-03-08T07:38:49;100212.00;;;7.24;100.00
41947;BME280;27638;42.184;24.848;2024-03-08T07:41:15;100215.16;;;7.39;100.00
41947;BME280;27638;42.184;24.848;2024-03-08T07:43:41;100221.34;;;7.28;100.00
41947;BME280;27638;42.184;24.848;2024-03-08T07:46:07;100226.03;;;7.46;100.00
41947;BME280;27638;42.184;24.848;2024-03-08T07:48:35;100217.41;;;7.23;100.00
41947;BME280;27638;42.184;24.848;2024-03-08T07:51:02;100213.06;;;7.33;100.00
41947;BME280;27638;42.184;24.848;2024-03-08T07:53:28;100225.28;;;7.02;100.00
41947;BME280;27638;42.184;24.848;2024-03-08T07:55:53;100228.56;;;7.15;100.00
41947;BME280;27638;42.184;24.848;2024-03-08T07:58:19;100235.38;;;6.97;100.00
41947;BME280;27638;42.184;24.848;2024-03-08T08:00:45;100224.00;;;6.96;100.00
41947;BME280;27638;42.184;24.848;2024-03-08T08:03:10;100229.72;;;7.01;100.00
41947;BME280;27638;42.184;24.848;2024-03-08T08:05:36;100229.28;;;6.96;100.00
41947;BME280;27638;42.184;24.848;2024-03-08T08:08:04;100238.06;;;7.07;100.00
41947;BME280;27638;42.184;24.848;2024-03-08T08:10:33;100230.63;;;6.91;100.00
41947;BME280;27638;42.184;24.848;2024-03-08T08:12:59;100230.94;;;7.18;100.00
41947;BME280;27638;42.184;24.848;2024-03-08T08:15:24;100235.22;;;7.30;100.00
41947;BME280;27638;42.184;24.848;2024-03-08T08:17:50;100236.25;;;7.39;100.00
41947;BME280;27638;42.184;24.848;2024-03-08T08:20:17;100229.41;;;7.16;100.00
41947;BME280;27638;42.184;24.848;2024-03-08T08:22:43;100239.44;;;7.22;100.00
41947;BME280;27638;42.184;24.848;2024-03-08T08:25:09;100215.69;;;7.33;100.00
41947;BME280;27638;42.184;24.848;2024-03-08T08:27:38;100240.53;;;7.61;100.00
41947;BME280;27638;42.184;24.848;2024-03-08T08:30:05;100246.75;;;7.60;100.00
41947;BME280;27638;42.184;24.848;2024-03-08T08:32:36;100243.72;;;7.64;100.00
41947;BME280;27638;42.184;24.848;2024-03-08T08:35:05;100250.63;;;7.86;100.00
41947;BME280;27638;42.184;24.848;2024-03-08T08:37:32;100239.25;;;7.86;100.00
41947;BME280;27638;42.184;24.848;2024-03-08T08:39:57;100248.63;;;8.09;100.00
41947;BME280;27638;42.184;24.848;2024-03-08T08:42:23;100241.44;;;8.21;100.00
41947;BME280;27638;42.184;24.848;2024-03-08T08:44:49;100247.09;;;8.37;100.00
41947;BME280;27638;42.184;24.848;2024-03-08T08:47:16;100249.22;;;8.53;100.00
41947;BME280;27638;42.184;24.848;2024-03-08T08:49:44;100245.44;;;8.36;100.00
41947;BME280;27638;42.184;24.848;2024-03-08T08:52:11;100250.72;;;7.75;100.00
41947;BME280;27638;42.184;24.848;2024-03-08T08:54:37;100242.06;;;7.63;100.00
41947;BME280;27638;42.184;24.848;2024-03-08T08:57:02;100243.47;;;7.67;100.00
41947;BME280;27638;42.184;24.848;2024-03-08T08:59:35;100235.06;;;7.83;100.00
41947;BME280;27638;42.184;24.848;2024-03-08T09:02:02;100246.22;;;7.66;100.00
41947;BME280;27638;42.184;24.848;2024-03-08T09:04:29;100235.03;;;7.74;100.00
41947;BME280;27638;42.184;24.848;2024-03-08T09:06:56;100242.75;;;7.96;100.00
41947;BME280;27638;42.184;24.848;2024-03-08T09:09:22;100238.28;;;7.87;100.00
41947;BME280;27638;42.184;24.848;2024-03-08T09:11:47;100243.47;;;7.98;100.00
41947;BME280;27638;42.184;24.848;2024-03-08T09:14:14;100244.25;;;7.89;100.00
41947;BME280;27638;42.184;24.848;2024-03-08T09:16:40;100236.50;;;7.97;100.00
41947;BME280;27638;42.184;24.848;2024-03-08T09:19:06;100238.28;;;8.27;100.00
41947;BME280;27638;42.184;24.848;2024-03-08T09:21:34;100244.06;;;8.42;100.00
41947;BME280;27638;42.184;24.848;2024-03-08T09:24:01;100242.53;;;8.49;100.00
41947;BME280;27638;42.184;24.848;2024-03-08T09:26:26;100247.25;;;8.45;100.00
41947;BME280;27638;42.184;24.848;2024-03-08T09:28:52;100252.53;;;8.45;100.00
41947;BME280;27638;42.184;24.848;2024-03-08T09:31:20;100242.38;;;8.41;100.00
41947;BME280;27638;42.184;24.848;2024-03-08T09:33:45;100243.78;;;8.45;100.00
41947;BME280;27638;42.184;24.848;2024-03-08T09:36:12;100250.72;;;8.36;100.00
41947;BME280;27638;42.184;24.848;2024-03-08T09:38:39;100247.13;;;8.16;100.00
41947;BME280;27638;42.184;24.848;2024-03-08T09:41:05;100245.31;;;8.17;100.00
41947;BME280;27638;42.184;24.848;2024-03-08T09:43:30;100247.84;;;8.18;100.00
41947;BME280;27638;42.184;24.848;2024-03-08T09:45:56;100251.25;;;7.99;100.00
41947;BME280;27638;42.184;24.848;2024-03-08T09:48:22;100245.31;;;8.17;100.00
41947;BME280;27638;42.184;24.848;2024-03-08T09:50:48;100253.69;;;8.31;100.00
41947;BME280;27638;42.184;24.848;2024-03-08T09:53:14;100249.34;;;8.42;100.00
41947;BME280;27638;42.184;24.848;2024-03-08T09:55:40;100255.19;;;8.45;100.00
41947;BME280;27638;42.184;24.848;2024-03-08T09:58:12;100256.13;;;8.35;100.00
41947;BME280;27638;42.184;24.848;2024-03-08T10:00:52;100249.50;;;8.50;100.00
41947;BME280;27638;42.184;24.848;2024-03-08T10:03:19;100250.84;;;8.35;100.00
41947;BME280;27638;42.184;24.848;2024-03-08T10:05:45;100249.63;;;8.48;100.00
41947;BME280;27638;42.184;24.848;2024-03-08T10:08:11;100248.41;;;8.31;100.00
41947;BME280;27638;42.184;24.848;2024-03-08T10:10:38;100244.63;;;8.45;100.00
41947;BME280;27638;42.184;24.848;2024-03-08T10:13:07;100247.25;;;8.45;100.00
41947;BME280;27638;42.184;24.848;2024-03-08T10:15:33;100240.59;;;8.51;100.00
41947;BME280;27638;42.184;24.848;2024-03-08T10:17:59;100249.50;;;8.50;100.00
41947;BME280;27638;42.184;24.848;2024-03-08T10:20:25;100243.78;;;8.45;100.00
41947;BME280;27638;42.184;24.848;2024-03-08T10:22:52;100226.88;;;8.67;100.00
41947;BME280;27638;42.184;24.848;2024-03-08T10:25:19;100241.41;;;8.42;100.00
41947;BME280;27638;42.184;24.848;2024-03-08T10:27:45;100245.31;;;8.47;100.00
41947;BME280;27638;42.184;24.848;2024-03-08T10:30:13;100244.59;;;8.36;100.00
41947;BME280;27638;42.184;24.848;2024-03-08T10:32:39;100210.66;;;8.31;100.00
41947;BME280;27638;42.184;24.848;2024-03-08T10:35:09;100238.81;;;8.51;100.00
41947;BME280;27638;42.184;24.848;2024-03-08T10:37:50;100237.84;;;8.72;100.00
41947;BME280;27638;42.184;24.848;2024-03-08T10:40:24;100238.41;;;8.94;100.00
41947;BME280;27638;42.184;24.848;2024-03-08T10:42:54;100228.53;;;8.77;100.00
41947;BME280;27638;42.184;24.848;2024-03-08T10:45:38;100233.53;;;8.51;100.00
41947;BME280;27638;42.184;24.848;2024-03-08T10:50:46;100232.09;;;8.38;100.00
41947;BME280;27638;42.184;24.848;2024-03-08T10:53:14;100227.13;;;8.54;100.00
41947;BME280;27638;42.184;24.848;2024-03-08T10:55:40;100218.50;;;8.52;100.00
41947;BME280;27638;42.184;24.848;2024-03-08T10:58:06;100219.06;;;8.55;100.00
41947;BME280;27638;42.184;24.848;2024-03-08T11:00:34;100221.84;;;8.44;100.00
41947;BME280;27638;42.184;24.848;2024-03-08T11:03:00;100217.28;;;8.56;100.00
41947;BME280;27638;42.184;24.848;2024-03-08T11:05:38;100215.47;;;8.85;100.00
41947;BME280;27638;42.184;24.848;2024-03-08T11:08:20;100203.78;;;8.88;100.00
41947;BME280;27638;42.184;24.848;2024-03-08T11:10:53;100205.31;;;9.00;100.00
41947;BME280;27638;42.184;24.848;2024-03-08T11:13:36;100204.34;;;9.01;100.00
41947;BME280;27638;42.184;24.848;2024-03-08T11:16:07;100209.38;;;8.75;100.00
41947;BME280;27638;42.184;24.848;2024-03-08T11:18:35;100198.09;;;9.02;100.00
41947;BME280;27638;42.184;24.848;2024-03-08T11:21:04;100192.50;;;9.15;100.00
41947;BME280;27638;42.184;24.848;2024-03-08T11:23:38;100187.25;;;8.95;100.00
41947;BME280;27638;42.184;24.848;2024-03-08T11:26:20;100192.81;;;8.92;100.00
41947;BME280;27638;42.184;24.848;2024-03-08T11:28:46;100189.50;;;8.81;100.00
41947;BME280;27638;42.184;24.848;2024-03-08T11:33:39;100191.97;;;8.92;100.00
41947;BME280;27638;42.184;24.848;2024-03-08T11:36:22;100189.19;;;8.93;100.00
41947;BME280;27638;42.184;24.848;2024-03-08T11:38:49;100197.50;;;9.18;100.00
41947;BME280;27638;42.184;24.848;2024-03-08T11:41:23;100200.13;;;9.27;100.00
41947;BME280;27638;42.184;24.848;2024-03-08T11:43:52;100201.50;;;9.41;100.00
41947;BME280;27638;42.184;24.848;2024-03-08T11:46:26;100203.59;;;9.38;100.00
41947;BME280;27638;42.184;24.848;2024-03-08T11:48:54;100197.75;;;9.34;100.00
41947;BME280;27638;42.184;24.848;2024-03-08T11:51:21;100197.06;;;9.42;100.00
41947;BME280;27638;42.184;24.848;2024-03-08T11:53:49;100198.72;;;9.43;100.00
41947;BME280;27638;42.184;24.848;2024-03-08T11:56:16;100189.59;;;9.65;100.00
41947;BME280;27638;42.184;24.848;2024-03-08T11:58:42;100199.41;;;9.82;100.00
41947;BME280;27638;42.184;24.848;2024-03-08T12:01:17;100173.25;;;9.51;100.00
41947;BME280;27638;42.184;24.848;2024-03-08T12:03:43;100195.88;;;9.64;100.00
41947;BME280;27638;42.184;24.848;2024-03-08T12:06:09;100188.19;;;9.70;100.00
41947;BME280;27638;42.184;24.848;2024-03-08T12:08:35;100192.91;;;9.76;100.00
41947;BME280;27638;42.184;24.848;2024-03-08T12:11:03;100196.31;;;9.59;100.00
41947;BME280;27638;42.184;24.848;2024-03-08T12:13:30;100187.28;;;9.52;100.00
41947;BME280;27638;42.184;24.848;2024-03-08T12:16:02;100184.50;;;9.53;100.00
41947;BME280;27638;42.184;24.848;2024-03-08T12:18:33;100198.19;;;9.20;100.00
41947;BME280;27638;42.184;24.848;2024-03-08T12:21:09;100188.69;;;9.46;100.00
41947;BME280;27638;42.184;24.848;2024-03-08T12:23:36;100184.31;;;9.65;100.00
41947;BME280;27638;42.184;24.848;2024-03-08T12:26:23;100187.53;;;9.58;100.00
41947;BME280;27638;42.184;24.848;2024-03-08T12:28:49;100183.13;;;9.49;100.00
41947;BME280;27638;42.184;24.848;2024-03-08T12:31:17;100187.94;;;9.64;100.00
41947;BME280;27638;42.184;24.848;2024-03-08T12:33:55;100177.97;;;9.48;100.00
41947;BME280;27638;42.184;24.848;2024-03-08T12:36:24;100178.16;;;9.74;100.00
41947;BME280;27638;42.184;24.848;2024-03-08T12:38:51;100170.84;;;9.85;100.00
41947;BME280;27638;42.184;24.848;2024-03-08T12:41:20;100174.47;;;9.57;100.00
41947;BME280;27638;42.184;24.848;2024-03-08T12:43:47;100171.53;;;9.60;100.00
41947;BME280;27638;42.184;24.848;2024-03-08T12:46:17;100167.94;;;9.51;100.00